sensor_id;sensor_type;location;lat;lon;timestamp;temperature;humidity
1956;DHT22;978;48.314;11.562;2023-08-06T00:02:14;24.10;85.50
1956;DHT22;978;48.314;11.562;2023-08-06T00:04:41;24.10;85.60
1956;DHT22;978;48.314;11.562;2023-08-06T00:07:08;24.10;85.50
1956;DHT22;978;48.314;11.562;2023-08-06T00:09:34;24.10;85.50
1956;DHT22;978;48.314;11.562;2023-08-06T00:12:01;24.10;85.40
1956;DHT22;978;48.314;11.562;2023-08-06T00:14:30;24.10;85.50
1956;DHT22;978;48.314;11.562;2023-08-06T00:16:56;24.10;85.50
1956;DHT22;978;48.314;11.562;2023-08-06T00:19:23;24.10;85.40
1956;DHT22;978;48.314;11.562;2023-08-06T00:21:50;24.00;85.30
1956;DHT22;978;48.314;11.562;2023-08-06T00:24:16;24.10;85.30
1956;DHT22;978;48.314;11.562;2023-08-06T00:26:43;24.10;85.30
1956;DHT22;978;48.314;11.562;2023-08-06T00:29:10;24.10;85.20
1956;DHT22;978;48.314;11.562;2023-08-06T00:31:38;24.10;85.20
1956;DHT22;978;48.314;11.562;2023-08-06T00:34:05;24.10;85.20
1956;DHT22;978;48.314;11.562;2023-08-06T00:36:31;24.10;85.20
1956;DHT22;978;48.314;11.562;2023-08-06T00:38:58;24.10;85.20
1956;DHT22;978;48.314;11.562;2023-08-06T00:41:25;24.10;85.20
1956;DHT22;978;48.314;11.562;2023-08-06T00:43:52;24.10;85.10
1956;DHT22;978;48.314;11.562;2023-08-06T00:46:18;24.10;85.10
1956;DHT22;978;48.314;11.562;2023-08-06T00:48:47;24.10;85.10
1956;DHT22;978;48.314;11.562;2023-08-06T00:51:14;24.10;85.00
1956;DHT22;978;48.314;11.562;2023-08-06T00:53:42;24.10;85.00
1956;DHT22;978;48.314;11.562;2023-08-06T00:56:09;24.10;85.00
1956;DHT22;978;48.314;11.562;2023-08-06T00:58:36;24.10;85.00
1956;DHT22;978;48.314;11.562;2023-08-06T01:01:03;24.10;85.00
1956;DHT22;978;48.314;11.562;2023-08-06T01:03:30;24.10;85.00
1956;DHT22;978;48.314;11.562;2023-08-06T01:05:58;24.10;85.00
1956;DHT22;978;48.314;11.562;2023-08-06T01:08:33;24.10;85.00
1956;DHT22;978;48.314;11.562;2023-08-06T01:11:12;24.10;84.90
1956;DHT22;978;48.314;11.562;2023-08-06T01:13:43;24.10;84.90
1956;DHT22;978;48.314;11.562;2023-08-06T01:16:15;24.00;85.40
1956;DHT22;978;48.314;11.562;2023-08-06T01:18:42;24.10;85.50
1956;DHT22;978;48.314;11.562;2023-08-06T01:21:13;24.10;84.90
1956;DHT22;978;48.314;11.562;2023-08-06T01:23:40;24.10;84.80
1956;DHT22;978;48.314;11.562;2023-08-06T01:26:12;24.10;84.80
1956;DHT22;978;48.314;11.562;2023-08-06T01:28:50;24.10;84.70
1956;DHT22;978;48.314;11.562;2023-08-06T01:31:22;24.10;84.70
1956;DHT22;978;48.314;11.562;2023-08-06T01:33:51;24.10;84.70
1956;DHT22;978;48.314;11.562;2023-08-06T01:36:21;24.10;84.70
1956;DHT22;978;48.314;11.562;2023-08-06T01:38:48;24.10;84.60
1956;DHT22;978;48.314;11.562;2023-08-06T01:41:15;24.10;84.60
1956;DHT22;978;48.314;11.562;2023-08-06T01:43:42;24.10;84.60
1956;DHT22;978;48.314;11.562;2023-08-06T01:46:08;24.10;84.60
1956;DHT22;978;48.314;11.562;2023-08-06T01:48:35;24.10;84.60
1956;DHT22;978;48.314;11.562;2023-08-06T01:51:04;24.10;84.50
1956;DHT22;978;48.314;11.562;2023-08-06T01:53:32;24.10;84.50
1956;DHT22;978;48.314;11.562;2023-08-06T01:55:59;24.10;84.60
1956;DHT22;978;48.314;11.562;2023-08-06T01:58:25;24.10;84.50
1956;DHT22;978;48.314;11.562;2023-08-06T02:00:52;24.20;84.60
1956;DHT22;978;48.314;11.562;2023-08-06T02:03:19;24.40;84.70
1956;DHT22;978;48.314;11.562;2023-08-06T02:05:45;24.10;84.50
1956;DHT22;978;48.314;11.562;2023-08-06T02:08:12;24.10;84.50
1956;DHT22;978;48.314;11.562;2023-08-06T02:10:40;24.10;84.60
1956;DHT22;978;48.314;11.562;2023-08-06T02:13:08;24.10;84.40
1956;DHT22;978;48.314;11.562;2023-08-06T02:15:34;24.10;84.40
1956;DHT22;978;48.314;11.562;2023-08-06T02:18:01;24.10;84.40
1956;DHT22;978;48.314;11.562;2023-08-06T02:20:28;24.10;84.60
1956;DHT22;978;48.314;11.562;2023-08-06T02:22:54;24.10;84.50
1956;DHT22;978;48.314;11.562;2023-08-06T02:25:21;24.10;84.40
1956;DHT22;978;48.314;11.562;2023-08-06T02:27:49;24.10;84.40
1956;DHT22;978;48.314;11.562;2023-08-06T02:30:16;24.10;84.30
1956;DHT22;978;48.314;11.562;2023-08-06T02:32:43;24.10;84.40
1956;DHT22;978;48.314;11.562;2023-08-06T02:35:10;24.10;84.40
1956;DHT22;978;48.314;11.562;2023-08-06T02:37:36;24.50;84.50
1956;DHT22;978;48.314;11.562;2023-08-06T02:40:04;24.10;84.30
1956;DHT22;978;48.314;11.562;2023-08-06T02:42:31;24.10;84.30
1956;DHT22;978;48.314;11.562;2023-08-06T02:44:59;24.10;84.30
1956;DHT22;978;48.314;11.562;2023-08-06T02:47:26;24.10;84.20
1956;DHT22;978;48.314;11.562;2023-08-06T02:49:52;24.10;84.30
1956;DHT22;978;48.314;11.562;2023-08-06T02:52:19;24.10;84.20
1956;DHT22;978;48.314;11.562;2023-08-06T02:54:46;24.10;84.20
1956;DHT22;978;48.314;11.562;2023-08-06T02:57:12;24.10;84.20
1956;DHT22;978;48.314;11.562;2023-08-06T02:59:39;24.10;84.20
1956;DHT22;978;48.314;11.562;2023-08-06T03:02:07;24.10;84.20
1956;DHT22;978;48.314;11.562;2023-08-06T03:04:34;24.00;84.10
1956;DHT22;978;48.314;11.562;2023-08-06T03:07:01;24.10;84.20
1956;DHT22;978;48.314;11.562;2023-08-06T03:09:27;24.10;84.20
1956;DHT22;978;48.314;11.562;2023-08-06T03:11:54;24.10;84.10
1956;DHT22;978;48.314;11.562;2023-08-06T03:14:21;24.10;84.10
1956;DHT22;978;48.314;11.562;2023-08-06T03:16:48;24.10;84.20
1956;DHT22;978;48.314;11.562;2023-08-06T03:19:16;24.10;84.20
1956;DHT22;978;48.314;11.562;2023-08-06T03:21:42;24.10;84.20
1956;DHT22;978;48.314;11.562;2023-08-06T03:24:09;24.10;84.10
1956;DHT22;978;48.314;11.562;2023-08-06T03:26:36;24.10;84.20
1956;DHT22;978;48.314;11.562;2023-08-06T03:29:02;24.10;84.20
1956;DHT22;978;48.314;11.562;2023-08-06T03:31:29;24.10;84.10
1956;DHT22;978;48.314;11.562;2023-08-06T03:33:56;24.10;84.10
1956;DHT22;978;48.314;11.562;2023-08-06T03:36:24;24.10;84.00
1956;DHT22;978;48.314;11.562;2023-08-06T03:38:51;24.10;84.00
1956;DHT22;978;48.314;11.562;2023-08-06T03:41:17;24.10;83.90
1956;DHT22;978;48.314;11.562;2023-08-06T03:43:44;24.10;84.00
1956;DHT22;978;48.314;11.562;2023-08-06T03:46:11;24.10;83.90
1956;DHT22;978;48.314;11.562;2023-08-06T03:48:37;24.10;83.80
1956;DHT22;978;48.314;11.562;2023-08-06T03:51:04;24.10;83.80
1956;DHT22;978;48.314;11.562;2023-08-06T03:53:32;24.10;83.80
1956;DHT22;978;48.314;11.562;2023-08-06T03:55:59;24.20;83.90
1956;DHT22;978;48.314;11.562;2023-08-06T03:58:28;24.10;83.80
1956;DHT22;978;48.314;11.562;2023-08-06T04:00:59;24.10;83.80
1956;DHT22;978;48.314;11.562;2023-08-06T04:03:29;24.10;83.80
1956;DHT22;978;48.314;11.562;2023-08-06T04:05:56;24.10;83.80
1956;DHT22;978;48.314;11.562;2023-08-06T04:08:28;24.10;83.80
1956;DHT22;978;48.314;11.562;2023-08-06T04:10:56;24.10;83.80
1956;DHT22;978;48.314;11.562;2023-08-06T04:13:24;24.10;83.80
1956;DHT22;978;48.314;11.562;2023-08-06T04:15:51;24.10;83.80
1956;DHT22;978;48.314;11.562;2023-08-06T04:18:20;24.10;83.70
1956;DHT22;978;48.314;11.562;2023-08-06T04:20:48;24.10;83.80
1956;DHT22;978;48.314;11.562;2023-08-06T04:23:17;24.10;83.70
1956;DHT22;978;48.314;11.562;2023-08-06T04:25:44;24.10;83.70
1956;DHT22;978;48.314;11.562;2023-08-06T04:28:12;24.10;83.70
1956;DHT22;978;48.314;11.562;2023-08-06T04:30:39;24.10;83.60
1956;DHT22;978;48.314;11.562;2023-08-06T04:33:09;24.40;83.80
1956;DHT22;978;48.314;11.562;2023-08-06T04:35:44;24.10;83.70
1956;DHT22;978;48.314;11.562;2023-08-06T04:38:23;24.10;83.60
1956;DHT22;978;48.314;11.562;2023-08-06T04:40:54;24.10;83.60
1956;DHT22;978;48.314;11.562;2023-08-06T04:43:23;24.10;83.60
1956;DHT22;978;48.314;11.562;2023-08-06T04:45:53;24.00;84.00
1956;DHT22;978;48.314;11.562;2023-08-06T04:48:23;22.30;83.00
1956;DHT22;978;48.314;11.562;2023-08-06T04:51:00;22.50;82.60
1956;DHT22;978;48.314;11.562;2023-08-06T04:53:34;24.20;83.50
1956;DHT22;978;48.314;11.562;2023-08-06T04:56:05;23.50;83.10
1956;DHT22;978;48.314;11.562;2023-08-06T04:58:46;24.00;83.60
1956;DHT22;978;48.314;11.562;2023-08-06T05:01:16;22.40;82.80
1956;DHT22;978;48.314;11.562;2023-08-06T05:03:44;24.10;84.00
1956;DHT22;978;48.314;11.562;2023-08-06T05:06:19;24.10;83.40
1956;DHT22;978;48.314;11.562;2023-08-06T05:08:48;24.10;83.40
1956;DHT22;978;48.314;11.562;2023-08-06T05:11:15;24.10;83.90
1956;DHT22;978;48.314;11.562;2023-08-06T05:13:51;24.10;83.40
1956;DHT22;978;48.314;11.562;2023-08-06T05:16:20;24.10;83.30
1956;DHT22;978;48.314;11.562;2023-08-06T05:18:51;24.10;83.30
1956;DHT22;978;48.314;11.562;2023-08-06T05:21:19;24.10;83.30
1956;DHT22;978;48.314;11.562;2023-08-06T05:23:48;24.10;83.40
1956;DHT22;978;48.314;11.562;2023-08-06T05:26:16;24.10;83.50
1956;DHT22;978;48.314;11.562;2023-08-06T05:28:47;24.10;83.80
1956;DHT22;978;48.314;11.562;2023-08-06T05:31:16;24.10;83.80
1956;DHT22;978;48.314;11.562;2023-08-06T05:33:43;24.10;84.00
1956;DHT22;978;48.314;11.562;2023-08-06T05:36:09;24.10;84.10
1956;DHT22;978;48.314;11.562;2023-08-06T05:38:38;24.10;84.20
1956;DHT22;978;48.314;11.562;2023-08-06T05:41:05;24.10;84.20
1956;DHT22;978;48.314;11.562;2023-08-06T05:43:32;24.10;84.10
1956;DHT22;978;48.314;11.562;2023-08-06T05:46:01;24.10;84.10
1956;DHT22;978;48.314;11.562;2023-08-06T05:48:30;24.10;84.10
1956;DHT22;978;48.314;11.562;2023-08-06T05:50:57;24.10;84.10
1956;DHT22;978;48.314;11.562;2023-08-06T05:53:25;24.10;84.10
1956;DHT22;978;48.314;11.562;2023-08-06T05:55:52;24.10;84.10
1956;DHT22;978;48.314;11.562;2023-08-06T05:58:19;24.10;84.00
1956;DHT22;978;48.314;11.562;2023-08-06T06:00:46;24.10;83.90
1956;DHT22;978;48.314;11.562;2023-08-06T06:03:15;24.10;83.90
1956;DHT22;978;48.314;11.562;2023-08-06T06:05:46;24.10;83.90
1956;DHT22;978;48.314;11.562;2023-08-06T06:08:14;24.10;84.00
1956;DHT22;978;48.314;11.562;2023-08-06T06:10:46;24.10;83.90
1956;DHT22;978;48.314;11.562;2023-08-06T06:13:16;24.10;83.80
1956;DHT22;978;48.314;11.562;2023-08-06T06:15:46;24.10;83.80
1956;DHT22;978;48.314;11.562;2023-08-06T06:18:18;24.10;83.80
1956;DHT22;978;48.314;11.562;2023-08-06T06:20:50;24.10;83.60
1956;DHT22;978;48.314;11.562;2023-08-06T06:23:18;24.10;83.60
1956;DHT22;978;48.314;11.562;2023-08-06T06:25:54;24.10;83.60
1956;DHT22;978;48.314;11.562;2023-08-06T06:28:26;24.10;84.10
1956;DHT22;978;48.314;11.562;2023-08-06T06:31:00;24.10;83.50
1956;DHT22;978;48.314;11.562;2023-08-06T06:33:41;24.10;83.40
1956;DHT22;978;48.314;11.562;2023-08-06T06:36:11;24.20;83.40
1956;DHT22;978;48.314;11.562;2023-08-06T06:38:46;24.10;83.30
1956;DHT22;978;48.314;11.562;2023-08-06T06:41:16;24.10;83.20
1956;DHT22;978;48.314;11.562;2023-08-06T06:43:48;24.10;83.20
1956;DHT22;978;48.314;11.562;2023-08-06T06:46:18;24.10;83.10
1956;DHT22;978;48.314;11.562;2023-08-06T06:48:56;24.20;83.10
1956;DHT22;978;48.314;11.562;2023-08-06T06:51:32;24.50;83.20
1956;DHT22;978;48.314;11.562;2023-08-06T06:54:08;24.20;83.00
1956;DHT22;978;48.314;11.562;2023-08-06T06:56:36;24.10;82.90
1956;DHT22;978;48.314;11.562;2023-08-06T06:59:18;24.40;83.00
1956;DHT22;978;48.314;11.562;2023-08-06T07:01:54;24.20;83.40
1956;DHT22;978;48.314;11.562;2023-08-06T07:04:26;24.10;82.70
1956;DHT22;978;48.314;11.562;2023-08-06T07:07:02;24.20;82.80
1956;DHT22;978;48.314;11.562;2023-08-06T07:09:39;24.10;82.70
1956;DHT22;978;48.314;11.562;2023-08-06T07:12:15;24.20;83.20
1956;DHT22;978;48.314;11.562;2023-08-06T07:14:45;24.10;82.60
1956;DHT22;978;48.314;11.562;2023-08-06T07:17:19;24.10;82.50
1956;DHT22;978;48.314;11.562;2023-08-06T07:20:08;24.20;82.60
1956;DHT22;978;48.314;11.562;2023-08-06T07:22:35;24.10;82.50
1956;DHT22;978;48.314;11.562;2023-08-06T07:25:04;24.20;82.50
1956;DHT22;978;48.314;11.562;2023-08-06T07:27:46;24.20;82.40
1956;DHT22;978;48.314;11.562;2023-08-06T07:30:14;24.20;82.40
1956;DHT22;978;48.314;11.562;2023-08-06T07:32:41;24.10;82.20
1956;DHT22;978;48.314;11.562;2023-08-06T07:35:12;24.20;82.20
1956;DHT22;978;48.314;11.562;2023-08-06T07:37:48;24.20;82.20
1956;DHT22;978;48.314;11.562;2023-08-06T07:40:15;24.20;82.20
1956;DHT22;978;48.314;11.562;2023-08-06T07:42:42;24.20;82.20
1956;DHT22;978;48.314;11.562;2023-08-06T07:45:15;24.20;82.20
1956;DHT22;978;48.314;11.562;2023-08-06T07:47:49;24.20;82.10
1956;DHT22;978;48.314;11.562;2023-08-06T07:50:19;24.20;82.20
1956;DHT22;978;48.314;11.562;2023-08-06T07:52:56;24.10;82.20
1956;DHT22;978;48.314;11.562;2023-08-06T07:55:27;24.20;82.20
1956;DHT22;978;48.314;11.562;2023-08-06T07:57:55;24.20;82.20
1956;DHT22;978;48.314;11.562;2023-08-06T08:00:22;24.20;82.20
1956;DHT22;978;48.314;11.562;2023-08-06T08:02:51;24.20;82.20
1956;DHT22;978;48.314;11.562;2023-08-06T08:05:19;24.20;82.20
1956;DHT22;978;48.314;11.562;2023-08-06T08:07:47;24.10;82.10
1956;DHT22;978;48.314;11.562;2023-08-06T08:10:17;24.20;82.00
1956;DHT22;978;48.314;11.562;2023-08-06T08:12:51;24.20;82.00
1956;DHT22;978;48.314;11.562;2023-08-06T08:15:21;24.20;81.90
1956;DHT22;978;48.314;11.562;2023-08-06T08:17:51;24.10;81.90
1956;DHT22;978;48.314;11.562;2023-08-06T08:20:41;24.10;81.90
1956;DHT22;978;48.314;11.562;2023-08-06T08:23:10;24.20;82.00
1956;DHT22;978;48.314;11.562;2023-08-06T08:25:39;24.20;82.00
1956;DHT22;978;48.314;11.562;2023-08-06T08:28:18;24.10;82.00
1956;DHT22;978;48.314;11.562;2023-08-06T08:30:56;24.10;82.10
1956;DHT22;978;48.314;11.562;2023-08-06T08:33:24;24.10;82.00
1956;DHT22;978;48.314;11.562;2023-08-06T08:36:09;24.20;82.00
1956;DHT22;978;48.314;11.562;2023-08-06T08:38:46;24.10;82.00
1956;DHT22;978;48.314;11.562;2023-08-06T08:41:21;24.10;82.10
1956;DHT22;978;48.314;11.562;2023-08-06T08:43:53;24.20;82.20
1956;DHT22;978;48.314;11.562;2023-08-06T08:46:37;23.30;81.60
1956;DHT22;978;48.314;11.562;2023-08-06T08:49:09;24.10;82.10
1956;DHT22;978;48.314;11.562;2023-08-06T08:51:41;24.10;82.20
1956;DHT22;978;48.314;11.562;2023-08-06T08:54:17;24.20;82.30
1956;DHT22;978;48.314;11.562;2023-08-06T08:56:55;24.10;82.20
1956;DHT22;978;48.314;11.562;2023-08-06T08:59:26;24.10;82.30
1956;DHT22;978;48.314;11.562;2023-08-06T09:01:56;24.20;82.40
1956;DHT22;978;48.314;11.562;2023-08-06T09:04:32;24.10;80.80
1956;DHT22;978;48.314;11.562;2023-08-06T09:07:06;24.10;79.90
1956;DHT22;978;48.314;11.562;2023-08-06T09:09:44;24.20;79.20
1956;DHT22;978;48.314;11.562;2023-08-06T09:12:20;24.10;78.70
1956;DHT22;978;48.314;11.562;2023-08-06T09:14:49;24.10;78.10
1956;DHT22;978;48.314;11.562;2023-08-06T09:17:19;24.10;77.60
1956;DHT22;978;48.314;11.562;2023-08-06T09:19:51;24.10;77.10
1956;DHT22;978;48.314;11.562;2023-08-06T09:22:34;24.10;76.70
1956;DHT22;978;48.314;11.562;2023-08-06T09:25:03;24.10;77.10
1956;DHT22;978;48.314;11.562;2023-08-06T09:27:37;24.10;76.20
1956;DHT22;978;48.314;11.562;2023-08-06T09:30:13;24.10;75.90
1956;DHT22;978;48.314;11.562;2023-08-06T09:32:58;24.10;75.60
1956;DHT22;978;48.314;11.562;2023-08-06T09:35:33;24.10;75.50
1956;DHT22;978;48.314;11.562;2023-08-06T09:38:21;23.80;75.20
1956;DHT22;978;48.314;11.562;2023-08-06T09:40:53;24.00;75.20
1956;DHT22;978;48.314;11.562;2023-08-06T09:43:24;24.10;75.30
1956;DHT22;978;48.314;11.562;2023-08-06T09:46:00;24.10;75.50
1956;DHT22;978;48.314;11.562;2023-08-06T09:48:26;24.10;75.60
1956;DHT22;978;48.314;11.562;2023-08-06T09:51:11;24.00;75.40
1956;DHT22;978;48.314;11.562;2023-08-06T09:53:50;24.00;75.20
1956;DHT22;978;48.314;11.562;2023-08-06T09:56:26;24.10;75.30
1956;DHT22;978;48.314;11.562;2023-08-06T09:58:56;24.10;75.00
1956;DHT22;978;48.314;11.562;2023-08-06T10:01:25;24.00;74.90
1956;DHT22;978;48.314;11.562;2023-08-06T10:04:03;24.00;74.80
1956;DHT22;978;48.314;11.562;2023-08-06T10:06:36;24.10;74.70
1956;DHT22;978;48.314;11.562;2023-08-06T10:09:07;24.00;74.50
1956;DHT22;978;48.314;11.562;2023-08-06T10:11:38;24.10;74.40
1956;DHT22;978;48.314;11.562;2023-08-06T10:14:15;24.00;74.10
1956;DHT22;978;48.314;11.562;2023-08-06T10:16:48;24.00;74.50
1956;DHT22;978;48.314;11.562;2023-08-06T10:19:18;24.00;75.00
1956;DHT22;978;48.314;11.562;2023-08-06T10:22:09;24.00;75.50
1956;DHT22;978;48.314;11.562;2023-08-06T10:24:55;24.00;76.10
1956;DHT22;978;48.314;11.562;2023-08-06T10:27:32;24.00;76.50
1956;DHT22;978;48.314;11.562;2023-08-06T10:30:23;24.00;76.80
1956;DHT22;978;48.314;11.562;2023-08-06T10:33:03;24.10;77.20
1956;DHT22;978;48.314;11.562;2023-08-06T10:35:38;24.10;77.40
1956;DHT22;978;48.314;11.562;2023-08-06T10:38:14;24.00;77.60
1956;DHT22;978;48.314;11.562;2023-08-06T10:41:02;24.10;78.00
1956;DHT22;978;48.314;11.562;2023-08-06T10:43:48;24.00;78.40
1956;DHT22;978;48.314;11.562;2023-08-06T10:46:27;24.10;78.80
1956;DHT22;978;48.314;11.562;2023-08-06T10:48:56;24.10;78.80
1956;DHT22;978;48.314;11.562;2023-08-06T10:51:36;24.10;79.00
1956;DHT22;978;48.314;11.562;2023-08-06T10:54:13;24.10;79.40
1956;DHT22;978;48.314;11.562;2023-08-06T10:56:58;24.10;79.60
1956;DHT22;978;48.314;11.562;2023-08-06T10:59:30;24.10;79.80
1956;DHT22;978;48.314;11.562;2023-08-06T11:02:06;24.10;80.00
1956;DHT22;978;48.314;11.562;2023-08-06T11:04:36;24.10;79.90
1956;DHT22;978;48.314;11.562;2023-08-06T11:07:14;24.10;80.10
1956;DHT22;978;48.314;11.562;2023-08-06T11:09:52;24.10;79.40
1956;DHT22;978;48.314;11.562;2023-08-06T11:12:21;24.10;78.40
1956;DHT22;978;48.314;11.562;2023-08-06T11:14:53;24.10;77.70
1956;DHT22;978;48.314;11.562;2023-08-06T11:17:36;24.10;77.10
1956;DHT22;978;48.314;11.562;2023-08-06T11:20:05;24.10;76.60
1956;DHT22;978;48.314;11.562;2023-08-06T11:22:33;24.10;76.20
1956;DHT22;978;48.314;11.562;2023-08-06T11:25:05;24.10;75.80
1956;DHT22;978;48.314;11.562;2023-08-06T11:27:45;24.10;75.40
1956;DHT22;978;48.314;11.562;2023-08-06T11:30:15;24.10;75.20
1956;DHT22;978;48.314;11.562;2023-08-06T11:32:46;24.00;74.90
1956;DHT22;978;48.314;11.562;2023-08-06T11:35:15;24.10;74.80
1956;DHT22;978;48.314;11.562;2023-08-06T11:37:46;24.00;74.70
1956;DHT22;978;48.314;11.562;2023-08-06T11:40:18;24.10;74.60
1956;DHT22;978;48.314;11.562;2023-08-06T11:43:17;24.00;74.40
1956;DHT22;978;48.314;11.562;2023-08-06T11:45:49;24.00;74.30
1956;DHT22;978;48.314;11.562;2023-08-06T11:48:17;24.10;74.30
1956;DHT22;978;48.314;11.562;2023-08-06T11:50:45;24.00;74.10
1956;DHT22;978;48.314;11.562;2023-08-06T11:53:17;24.00;74.00
1956;DHT22;978;48.314;11.562;2023-08-06T11:55:49;24.00;73.90
1956;DHT22;978;48.314;11.562;2023-08-06T11:58:36;24.00;73.80
1956;DHT22;978;48.314;11.562;2023-08-06T12:01:07;24.10;74.10
1956;DHT22;978;48.314;11.562;2023-08-06T12:03:40;24.00;73.70
1956;DHT22;978;48.314;11.562;2023-08-06T12:06:11;24.00;73.50
1956;DHT22;978;48.314;11.562;2023-08-06T12:08:43;24.00;73.30
1956;DHT22;978;48.314;11.562;2023-08-06T12:11:21;24.00;73.10
1956;DHT22;978;48.314;11.562;2023-08-06T12:13:57;24.00;73.10
1956;DHT22;978;48.314;11.562;2023-08-06T12:16:27;24.00;73.00
1956;DHT22;978;48.314;11.562;2023-08-06T12:18:57;24.00;72.90
1956;DHT22;978;48.314;11.562;2023-08-06T12:21:23;24.00;72.90
1956;DHT22;978;48.314;11.562;2023-08-06T12:23:53;24.00;73.10
1956;DHT22;978;48.314;11.562;2023-08-06T12:26:20;24.00;73.00
1956;DHT22;978;48.314;11.562;2023-08-06T12:28:49;24.00;73.10
1956;DHT22;978;48.314;11.562;2023-08-06T12:31:32;24.00;73.00
1956;DHT22;978;48.314;11.562;2023-08-06T12:34:01;24.00;73.20
1956;DHT22;978;48.314;11.562;2023-08-06T12:36:30;24.00;73.60
1956;DHT22;978;48.314;11.562;2023-08-06T12:39:07;24.00;74.00
1956;DHT22;978;48.314;11.562;2023-08-06T12:41:38;24.00;74.40
1956;DHT22;978;48.314;11.562;2023-08-06T12:44:14;24.00;74.70
1956;DHT22;978;48.314;11.562;2023-08-06T12:46:56;24.00;75.00
1956;DHT22;978;48.314;11.562;2023-08-06T12:49:25;24.00;75.40
1956;DHT22;978;48.314;11.562;2023-08-06T12:52:02;24.00;75.60
1956;DHT22;978;48.314;11.562;2023-08-06T12:54:45;24.00;75.90
1956;DHT22;978;48.314;11.562;2023-08-06T12:57:13;24.00;76.10
1956;DHT22;978;48.314;11.562;2023-08-06T12:59:45;24.00;76.20
1956;DHT22;978;48.314;11.562;2023-08-06T13:02:29;24.00;76.40
1956;DHT22;978;48.314;11.562;2023-08-06T13:04:57;24.00;76.60
1956;DHT22;978;48.314;11.562;2023-08-06T13:07:29;24.00;76.70
1956;DHT22;978;48.314;11.562;2023-08-06T13:09:59;24.00;76.80
1956;DHT22;978;48.314;11.562;2023-08-06T13:12:40;24.00;76.90
1956;DHT22;978;48.314;11.562;2023-08-06T13:15:10;24.00;77.10
1956;DHT22;978;48.314;11.562;2023-08-06T13:17:42;24.00;77.20
1956;DHT22;978;48.314;11.562;2023-08-06T13:20:12;24.00;77.20
1956;DHT22;978;48.314;11.562;2023-08-06T13:22:43;24.00;77.30
1956;DHT22;978;48.314;11.562;2023-08-06T13:25:14;24.00;77.50
1956;DHT22;978;48.314;11.562;2023-08-06T13:27:52;24.00;77.50
1956;DHT22;978;48.314;11.562;2023-08-06T13:30:30;24.00;77.60
1956;DHT22;978;48.314;11.562;2023-08-06T13:33:14;24.00;77.40
1956;DHT22;978;48.314;11.562;2023-08-06T13:35:43;24.00;77.40
1956;DHT22;978;48.314;11.562;2023-08-06T13:38:19;24.00;77.50
1956;DHT22;978;48.314;11.562;2023-08-06T13:40:56;24.00;77.60
1956;DHT22;978;48.314;11.562;2023-08-06T13:43:40;24.00;77.70
1956;DHT22;978;48.314;11.562;2023-08-06T13:46:08;24.00;77.80
1956;DHT22;978;48.314;11.562;2023-08-06T13:48:47;24.00;78.00
1956;DHT22;978;48.314;11.562;2023-08-06T13:51:18;24.00;78.10
1956;DHT22;978;48.314;11.562;2023-08-06T13:53:52;24.00;78.10
1956;DHT22;978;48.314;11.562;2023-08-06T13:56:22;24.00;78.30
1956;DHT22;978;48.314;11.562;2023-08-06T13:58:58;24.00;78.40
1956;DHT22;978;48.314;11.562;2023-08-06T14:01:42;24.00;78.40
1956;DHT22;978;48.314;11.562;2023-08-06T14:04:20;24.00;78.50
1956;DHT22;978;48.314;11.562;2023-08-06T14:06:51;24.00;78.50
1956;DHT22;978;48.314;11.562;2023-08-06T14:09:21;24.00;78.60
1956;DHT22;978;48.314;11.562;2023-08-06T14:12:03;24.00;78.60
1956;DHT22;978;48.314;11.562;2023-08-06T14:14:33;24.00;78.70
1956;DHT22;978;48.314;11.562;2023-08-06T14:17:03;24.00;78.80
1956;DHT22;978;48.314;11.562;2023-08-06T14:19:34;24.00;78.80
1956;DHT22;978;48.314;11.562;2023-08-06T14:22:06;24.00;78.90
1956;DHT22;978;48.314;11.562;2023-08-06T14:24:35;24.00;78.90
1956;DHT22;978;48.314;11.562;2023-08-06T14:27:04;24.00;78.90
1956;DHT22;978;48.314;11.562;2023-08-06T14:29:31;24.00;79.00
1956;DHT22;978;48.314;11.562;2023-08-06T14:32:04;24.00;78.80
1956;DHT22;978;48.314;11.562;2023-08-06T14:34:48;24.00;78.20
1956;DHT22;978;48.314;11.562;2023-08-06T14:37:19;24.00;77.80
1956;DHT22;978;48.314;11.562;2023-08-06T14:39:48;24.00;77.50
1956;DHT22;978;48.314;11.562;2023-08-06T14:42:17;24.00;77.00
1956;DHT22;978;48.314;11.562;2023-08-06T14:44:46;24.00;76.80
1956;DHT22;978;48.314;11.562;2023-08-06T14:47:15;24.00;76.40
1956;DHT22;978;48.314;11.562;2023-08-06T14:49:46;24.00;76.50
1956;DHT22;978;48.314;11.562;2023-08-06T14:52:18;24.00;76.90
1956;DHT22;978;48.314;11.562;2023-08-06T14:54:53;24.00;77.10
1956;DHT22;978;48.314;11.562;2023-08-06T14:57:24;23.90;77.20
1956;DHT22;978;48.314;11.562;2023-08-06T14:59:55;24.00;77.40
1956;DHT22;978;48.314;11.562;2023-08-06T15:02:22;24.00;77.60
1956;DHT22;978;48.314;11.562;2023-08-06T15:05:07;24.00;77.80
1956;DHT22;978;48.314;11.562;2023-08-06T15:07:44;24.00;78.10
1956;DHT22;978;48.314;11.562;2023-08-06T15:10:19;23.90;78.50
1956;DHT22;978;48.314;11.562;2023-08-06T15:12:48;24.00;79.10
1956;DHT22;978;48.314;11.562;2023-08-06T15:15:21;24.00;79.60
1956;DHT22;978;48.314;11.562;2023-08-06T15:17:54;24.00;79.40
1956;DHT22;978;48.314;11.562;2023-08-06T15:20:28;24.00;79.60
1956;DHT22;978;48.314;11.562;2023-08-06T15:22:57;24.00;80.40
1956;DHT22;978;48.314;11.562;2023-08-06T15:25:24;24.00;80.70
1956;DHT22;978;48.314;11.562;2023-08-06T15:27:53;24.00;81.00
1956;DHT22;978;48.314;11.562;2023-08-06T15:30:20;24.00;81.00
1956;DHT22;978;48.314;11.562;2023-08-06T15:32:49;24.00;80.70
1956;DHT22;978;48.314;11.562;2023-08-06T15:35:16;23.90;80.80
1956;DHT22;978;48.314;11.562;2023-08-06T15:37:44;24.00;80.80
1956;DHT22;978;48.314;11.562;2023-08-06T15:40:15;24.00;80.80
1956;DHT22;978;48.314;11.562;2023-08-06T15:42:42;24.00;80.80
1956;DHT22;978;48.314;11.562;2023-08-06T15:45:13;24.00;80.70
1956;DHT22;978;48.314;11.562;2023-08-06T15:47:39;24.00;80.60
1956;DHT22;978;48.314;11.562;2023-08-06T15:50:07;24.00;80.50
1956;DHT22;978;48.314;11.562;2023-08-06T15:52:37;24.00;80.40
1956;DHT22;978;48.314;11.562;2023-08-06T15:55:06;24.00;80.40
1956;DHT22;978;48.314;11.562;2023-08-06T15:57:34;24.00;80.30
1956;DHT22;978;48.314;11.562;2023-08-06T16:00:04;24.00;80.30
1956;DHT22;978;48.314;11.562;2023-08-06T16:02:38;24.00;80.20
1956;DHT22;978;48.314;11.562;2023-08-06T16:05:07;24.00;80.20
1956;DHT22;978;48.314;11.562;2023-08-06T16:07:33;24.00;80.20
1956;DHT22;978;48.314;11.562;2023-08-06T16:10:02;24.00;80.20
1956;DHT22;978;48.314;11.562;2023-08-06T16:12:30;24.00;80.20
1956;DHT22;978;48.314;11.562;2023-08-06T16:14:58;24.00;80.30
1956;DHT22;978;48.314;11.562;2023-08-06T16:17:25;24.00;80.30
1956;DHT22;978;48.314;11.562;2023-08-06T16:19:54;24.00;80.50
1956;DHT22;978;48.314;11.562;2023-08-06T16:22:21;24.00;80.50
1956;DHT22;978;48.314;11.562;2023-08-06T16:24:48;24.00;80.80
1956;DHT22;978;48.314;11.562;2023-08-06T16:27:15;24.10;81.10
1956;DHT22;978;48.314;11.562;2023-08-06T16:29:46;24.00;81.20